createdAt,value
2022-10-12T00:01:19.482Z,44.05
2022-10-12T00:03:46.814Z,46.67
2022-10-12T00:06:19.575Z,39.05
2022-10-12T00:08:47.226Z,50.38
2022-10-12T00:11:16.303Z,40.38
2022-10-12T00:13:43.679Z,53.40
2022-10-12T00:16:17.930Z,46.72
2022-10-12T00:18:45.280Z,44.38
2022-10-12T00:21:14.265Z,44.17
2022-10-12T00:23:41.736Z,55.40
2022-10-12T00:26:11.408Z,47.10
2022-10-12T00:28:38.859Z,47.38
2022-10-12T00:31:11.374Z,49.00
2022-10-12T00:33:39.124Z,49.05
2022-10-12T00:36:13.769Z,50.67
2022-10-12T00:38:41.030Z,50.70
2022-10-12T00:41:08.404Z,43.85
2022-10-12T00:43:39.102Z,46.28
2022-10-12T00:46:27.551Z,48.40
2022-10-12T00:49:05.658Z,50.25
2022-10-12T00:51:32.936Z,52.60
2022-10-12T00:54:05.450Z,43.58
2022-10-12T00:56:34.468Z,47.78
2022-10-12T00:59:04.429Z,52.10
2022-10-12T01:01:32.789Z,51.67
2022-10-12T01:04:00.388Z,49.90
2022-10-12T01:06:27.681Z,43.40
2022-10-12T01:08:54.987Z,49.40
2022-10-12T01:11:22.287Z,46.72
2022-10-12T01:13:49.577Z,45.30
2022-10-12T01:16:24.776Z,47.33
2022-10-12T01:18:52.014Z,42.92
2022-10-12T01:21:22.768Z,48.13
2022-10-12T01:23:55.844Z,53.20
2022-10-12T01:26:49.275Z,37.72
2022-10-12T01:29:37.811Z,46.08
2022-10-12T01:32:30.960Z,52.30
2022-10-12T01:35:14.275Z,52.83
2022-10-12T01:37:56.682Z,51.05
2022-10-12T01:40:29.949Z,49.85
2022-10-12T01:42:58.271Z,49.90
2022-10-12T01:45:25.542Z,51.10
2022-10-12T01:47:53.510Z,52.25
2022-10-12T01:50:22.045Z,50.75
2022-10-12T01:53:27.662Z,57.28
2022-10-12T01:55:59.612Z,59.53
2022-10-12T01:58:51.371Z,63.00
2022-10-12T02:01:38.865Z,65.55
2022-10-12T02:04:28.019Z,63.97
2022-10-12T02:07:27.197Z,68.32
2022-10-12T02:09:54.917Z,65.90
2022-10-12T02:12:22.532Z,60.50
2022-10-12T02:14:55.320Z,64.18
2022-10-12T02:17:23.022Z,64.28
2022-10-12T02:20:01.146Z,68.50
2022-10-12T02:22:38.606Z,78.32
2022-10-12T02:25:11.177Z,74.15
2022-10-12T02:27:42.442Z,74.10
2022-10-12T02:30:10.682Z,70.03
2022-10-12T02:32:39.030Z,77.88
2022-10-12T02:35:15.285Z,71.32
2022-10-12T02:38:04.356Z,71.80
2022-10-12T02:40:37.715Z,72.10
2022-10-12T02:43:21.749Z,78.07
2022-10-12T02:45:49.073Z,83.53
2022-10-12T02:48:19.993Z,79.82
2022-10-12T02:50:47.368Z,83.28
2022-10-12T02:53:14.660Z,73.60
2022-10-12T02:55:56.504Z,78.55
2022-10-12T02:58:23.810Z,74.57
2022-10-12T03:00:51.283Z,83.18
2022-10-12T03:03:18.617Z,87.80
2022-10-12T03:05:46.105Z,90.68
2022-10-12T03:08:13.396Z,79.57
2022-10-12T03:10:40.655Z,87.45
2022-10-12T03:13:07.937Z,83.45
2022-10-12T03:15:35.223Z,91.47
2022-10-12T03:18:02.590Z,95.85
2022-10-12T03:20:29.907Z,88.20
2022-10-12T03:22:57.212Z,86.47
2022-10-12T03:25:24.531Z,87.55
2022-10-12T03:27:51.850Z,93.43
2022-10-12T03:30:19.126Z,89.95
2022-10-12T03:32:46.421Z,92.22
2022-10-12T03:35:13.708Z,93.95
2022-10-12T03:37:41.202Z,87.03
2022-10-12T03:40:09.591Z,96.75
2022-10-12T03:42:36.866Z,94.47
2022-10-12T03:45:04.463Z,94.82
2022-10-12T03:47:31.730Z,88.63
2022-10-12T03:49:59.026Z,87.32
2022-10-12T03:52:26.352Z,85.78
2022-10-12T03:54:53.634Z,92.85
2022-10-12T03:57:20.919Z,96.88
2022-10-12T03:59:48.194Z,96.35
2022-10-12T04:02:17.099Z,94.60
2022-10-12T04:04:44.687Z,101.97
2022-10-12T04:07:12.092Z,90.68
2022-10-12T04:09:39.446Z,92.78
2022-10-12T04:12:06.857Z,113.32
2022-10-12T04:14:34.126Z,99.82
2022-10-12T04:17:01.460Z,98.22
2022-10-12T04:19:28.751Z,107.28
2022-10-12T04:21:56.059Z,105.22
2022-10-12T04:24:23.376Z,109.38
2022-10-12T04:26:50.703Z,94.78
2022-10-12T04:29:17.968Z,119.88
2022-10-12T04:31:45.271Z,107.68
2022-10-12T04:34:12.652Z,108.65
2022-10-12T04:36:39.920Z,108.13
2022-10-12T04:39:07.283Z,104.53
2022-10-12T04:41:34.548Z,106.72
2022-10-12T04:44:01.951Z,114.35
2022-10-12T04:46:29.230Z,114.53
2022-10-12T04:48:56.611Z,94.07
2022-10-12T04:51:24.766Z,114.25
2022-10-12T04:53:52.168Z,108.63
2022-10-12T04:56:19.631Z,108.07
2022-10-12T04:58:46.908Z,107.43
2022-10-12T05:01:14.258Z,95.32
2022-10-12T05:03:42.241Z,98.07
2022-10-12T05:06:09.762Z,109.10
2022-10-12T05:08:37.035Z,96.82
2022-10-12T05:11:04.407Z,96.07
2022-10-12T05:13:31.698Z,114.30
2022-10-12T05:15:59.040Z,108.32
2022-10-12T05:18:26.380Z,87.28
2022-10-12T05:20:57.016Z,96.45
2022-10-12T05:23:24.567Z,97.30
2022-10-12T05:25:52.023Z,101.78
2022-10-12T05:28:19.344Z,93.90
2022-10-12T05:30:50.422Z,124.72
2022-10-12T05:33:18.007Z,94.97
2022-10-12T05:35:48.303Z,99.68
2022-10-12T05:38:17.784Z,99.50
2022-10-12T05:40:45.135Z,95.20
2022-10-12T05:43:12.451Z,99.13
2022-10-12T05:45:39.759Z,85.45
2022-10-12T05:48:07.067Z,92.10
2022-10-12T05:50:34.438Z,98.45
2022-10-12T05:53:01.761Z,96.53
2022-10-12T05:55:29.079Z,106.70
2022-10-12T05:57:56.430Z,92.38
2022-10-12T06:00:23.736Z,95.90
2022-10-12T06:02:51.887Z,103.15
2022-10-12T06:05:19.238Z,97.38
2022-10-12T06:07:46.577Z,99.93
2022-10-12T06:10:13.931Z,105.75
2022-10-12T06:12:41.401Z,99.68
2022-10-12T06:15:09.453Z,99.40
2022-10-12T06:17:36.786Z,106.35
2022-10-12T06:20:04.424Z,122.32
2022-10-12T06:22:31.744Z,104.95
2022-10-12T06:24:59.130Z,112.07
2022-10-12T06:27:26.478Z,104.68
2022-10-12T06:29:53.766Z,96.53
2022-10-12T06:32:21.155Z,108.28
2022-10-12T06:34:48.429Z,111.32
2022-10-12T06:37:36.987Z,102.70
2022-10-12T06:40:03.197Z,112.95
2022-10-12T06:42:30.515Z,116.20
2022-10-12T06:44:57.805Z,110.80
2022-10-12T06:47:25.122Z,109.85
2022-10-12T06:49:52.389Z,124.95
2022-10-12T06:52:19.700Z,108.18
2022-10-12T06:54:47.027Z,109.00
2022-10-12T06:57:14.341Z,110.13
2022-10-12T06:59:41.605Z,116.82
2022-10-12T07:02:11.939Z,117.35
2022-10-12T07:04:39.226Z,106.05
2022-10-12T07:07:06.512Z,97.13
2022-10-12T07:09:33.791Z,91.07
2022-10-12T07:12:01.100Z,98.93
2022-10-12T07:14:28.393Z,94.30
2022-10-12T07:16:55.749Z,94.75
2022-10-12T07:19:23.086Z,86.60
2022-10-12T07:21:50.417Z,93.82
2022-10-12T07:24:17.688Z,86.10
2022-10-12T07:26:45.037Z,84.57
2022-10-12T07:29:12.314Z,73.85
2022-10-12T07:31:39.635Z,69.38
2022-10-12T07:34:07.016Z,73.68
2022-10-12T07:36:57.493Z,68.13
2022-10-12T07:39:24.910Z,68.40
2022-10-12T07:41:52.530Z,78.05
2022-10-12T07:44:20.051Z,82.72
2022-10-12T07:46:47.347Z,85.45
2022-10-12T07:49:15.017Z,65.55
2022-10-12T07:51:42.480Z,74.80
2022-10-12T07:54:09.831Z,81.35
2022-10-12T07:56:37.165Z,77.95
2022-10-12T07:59:04.483Z,77.00
2022-10-12T08:01:33.101Z,84.25
2022-10-12T08:04:02.013Z,84.15
2022-10-12T08:06:31.930Z,78.28
2022-10-12T08:09:00.017Z,90.28
2022-10-12T08:11:27.476Z,86.95
2022-10-12T08:13:56.047Z,79.40
2022-10-12T08:16:23.914Z,85.13
2022-10-12T08:18:51.466Z,79.70
2022-10-12T08:21:18.864Z,79.45
2022-10-12T08:23:46.756Z,82.78
2022-10-12T08:26:14.693Z,76.05
2022-10-12T08:28:42.215Z,76.68
2022-10-12T08:31:14.409Z,79.15
2022-10-12T08:33:41.770Z,88.55
2022-10-12T08:36:09.408Z,80.45
2022-10-12T08:38:38.960Z,83.60
2022-10-12T08:41:23.047Z,80.97
2022-10-12T08:44:15.155Z,93.88
2022-10-12T08:46:42.441Z,79.78
2022-10-12T08:49:20.031Z,79.43
2022-10-12T08:51:55.359Z,81.57
2022-10-12T08:54:23.527Z,79.53
2022-10-12T08:56:53.595Z,76.35
2022-10-12T08:59:20.994Z,74.40
2022-10-12T09:02:15.984Z,82.80
2022-10-12T09:05:03.862Z,70.40
2022-10-12T09:07:54.694Z,79.22
2022-10-12T09:10:28.079Z,74.50
2022-10-12T09:13:11.445Z,63.45
2022-10-12T09:15:59.819Z,72.20
2022-10-12T09:18:40.825Z,71.70
2022-10-12T09:21:11.606Z,71.50
2022-10-12T09:23:39.874Z,70.43
2022-10-12T09:26:17.909Z,62.67
2022-10-12T09:29:20.674Z,87.47
2022-10-12T09:32:14.019Z,62.35
2022-10-12T09:34:44.064Z,62.25
2022-10-12T09:37:37.964Z,69.60
2022-10-12T09:40:06.233Z,64.15
2022-10-12T09:42:34.197Z,60.28
2022-10-12T09:45:19.022Z,56.58
2022-10-12T09:48:10.419Z,63.17
2022-10-12T09:50:44.125Z,62.72
2022-10-12T09:53:28.687Z,56.38
2022-10-12T09:56:16.027Z,52.38
2022-10-12T09:58:50.829Z,49.75
2022-10-12T10:01:26.241Z,52.03
2022-10-12T10:04:23.729Z,49.33
2022-10-12T10:06:51.135Z,55.10
2022-10-12T10:09:30.141Z,47.17
2022-10-12T10:11:58.643Z,45.45
2022-10-12T10:14:25.974Z,44.22
2022-10-12T10:16:54.734Z,46.25
2022-10-12T10:19:25.062Z,44.88
2022-10-12T10:21:53.333Z,64.50
2022-10-12T10:24:29.115Z,52.20
2022-10-12T10:27:00.311Z,45.67
2022-10-12T10:29:40.761Z,54.22
2022-10-12T10:32:14.963Z,44.17
2022-10-12T10:34:42.440Z,39.75
2022-10-12T10:37:18.751Z,37.05
2022-10-12T10:39:50.116Z,35.33
2022-10-12T10:42:28.611Z,37.03
2022-10-12T10:45:03.851Z,51.55
2022-10-12T10:47:32.015Z,42.78
2022-10-12T10:50:01.418Z,45.50
2022-10-12T10:52:30.307Z,33.08
2022-10-12T10:55:14.930Z,33.67
2022-10-12T10:57:46.618Z,34.30
2022-10-12T11:00:38.078Z,34.33
2022-10-12T11:03:28.973Z,34.80
2022-10-12T11:06:22.667Z,34.08
2022-10-12T11:09:02.396Z,37.75
2022-10-12T11:11:29.731Z,41.75
2022-10-12T11:14:02.201Z,45.38
2022-10-12T11:16:38.859Z,43.72
2022-10-12T11:19:26.147Z,42.83
2022-10-12T11:21:56.711Z,37.10
2022-10-12T11:24:52.211Z,38.65
2022-10-12T11:27:35.004Z,39.33
2022-10-12T11:30:09.349Z,42.10
2022-10-12T11:32:40.914Z,40.50
2022-10-12T11:35:10.184Z,37.50
2022-10-12T11:37:43.974Z,38.72
2022-10-12T11:40:47.865Z,37.53
2022-10-12T11:43:16.591Z,43.63
2022-10-12T11:45:47.235Z,37.90
2022-10-12T11:48:24.784Z,33.67
2022-10-12T11:50:54.264Z,33.15
2022-10-12T11:53:46.442Z,36.95
2022-10-12T11:56:37.683Z,31.58
2022-10-12T11:59:10.788Z,35.53
2022-10-12T12:02:01.084Z,38.67
2022-10-12T12:04:42.170Z,30.05
2022-10-12T12:07:35.275Z,32.85
2022-10-12T12:10:24.887Z,32.30
2022-10-12T12:13:12.890Z,38.40
2022-10-12T12:15:52.733Z,42.88
2022-10-12T12:18:24.503Z,34.47
2022-10-12T12:21:02.300Z,35.92
2022-10-12T12:23:35.726Z,40.88
2022-10-12T12:26:16.506Z,36.53
2022-10-12T12:28:48.861Z,33.67
2022-10-12T12:31:22.361Z,31.50
2022-10-12T12:33:52.065Z,34.38
2022-10-12T12:36:35.000Z,34.97
2022-10-12T12:39:03.017Z,38.30
2022-10-12T12:42:01.864Z,38.88
2022-10-12T12:44:40.452Z,35.60
2022-10-12T12:47:33.067Z,35.83
2022-10-12T12:50:23.134Z,38.97
2022-10-12T12:52:50.409Z,35.72
2022-10-12T12:55:42.832Z,31.73
2022-10-12T12:58:31.830Z,34.42
2022-10-12T13:01:17.781Z,31.98
2022-10-12T13:03:51.025Z,37.30
2022-10-12T13:06:50.715Z,30.70
2022-10-12T13:09:36.520Z,39.63
2022-10-12T13:12:12.479Z,33.58
2022-10-12T13:15:11.578Z,32.58
2022-10-12T13:17:51.182Z,32.03
2022-10-12T13:20:29.348Z,33.92
2022-10-12T13:22:57.870Z,35.38
2022-10-12T13:25:29.834Z,31.83
2022-10-12T13:27:57.252Z,38.67
2022-10-12T13:30:33.139Z,31.55
2022-10-12T13:33:11.338Z,38.47
2022-10-12T13:35:45.454Z,31.92
2022-10-12T13:38:15.706Z,29.85
2022-10-12T13:40:44.944Z,37.58
2022-10-12T13:43:31.510Z,38.90
2022-10-12T13:45:59.206Z,37.45
2022-10-12T13:48:54.036Z,35.47
2022-10-12T13:51:25.544Z,40.38
2022-10-12T13:53:53.495Z,35.33
2022-10-12T13:56:23.304Z,35.90
2022-10-12T13:58:53.628Z,31.90
2022-10-12T14:01:20.983Z,40.90
2022-10-12T14:03:48.367Z,34.00
2022-10-12T14:06:35.526Z,35.55
2022-10-12T14:09:10.398Z,35.20
2022-10-12T14:11:37.813Z,32.25
2022-10-12T14:14:05.110Z,33.38
2022-10-12T14:16:32.605Z,34.65
2022-10-12T14:19:21.351Z,30.55
2022-10-12T14:21:48.990Z,38.83
2022-10-12T14:24:18.144Z,36.75
2022-10-12T14:26:52.109Z,31.13
2022-10-12T14:29:36.197Z,34.72
2022-10-12T14:32:05.169Z,34.00
2022-10-12T14:34:40.960Z,33.35
2022-10-12T14:37:17.538Z,32.05
2022-10-12T14:39:46.338Z,31.80
2022-10-12T14:42:28.792Z,40.13
2022-10-12T14:44:56.436Z,35.97
2022-10-12T14:47:42.919Z,34.08
2022-10-12T14:50:12.136Z,40.95
2022-10-12T14:52:43.855Z,37.30
2022-10-12T14:55:15.923Z,36.65
2022-10-12T14:57:43.861Z,36.58
2022-10-12T15:00:21.083Z,37.83
2022-10-12T15:02:48.889Z,37.72
2022-10-12T15:05:17.785Z,44.80
2022-10-12T15:07:46.941Z,39.38
2022-10-12T15:10:15.005Z,44.05
2022-10-12T15:12:43.691Z,45.58
2022-10-12T15:15:28.964Z,41.08
2022-10-12T15:17:57.060Z,47.53
2022-10-12T15:20:25.586Z,46.15
2022-10-12T15:22:52.965Z,39.95
2022-10-12T15:25:33.112Z,46.42
2022-10-12T15:28:00.854Z,43.42
2022-10-12T15:30:28.159Z,45.30
2022-10-12T15:32:55.496Z,48.72
2022-10-12T15:35:24.996Z,51.97
2022-10-12T15:37:52.628Z,45.53
2022-10-12T15:40:20.416Z,41.78
2022-10-12T15:42:47.790Z,43.85
2022-10-12T15:45:18.557Z,41.20
2022-10-12T15:47:46.916Z,41.42
2022-10-12T15:50:14.701Z,48.42
2022-10-12T15:52:42.148Z,49.83
2022-10-12T15:55:15.976Z,46.38
2022-10-12T15:57:43.381Z,39.90
2022-10-12T16:00:11.587Z,37.78
2022-10-12T16:02:42.452Z,40.63
2022-10-12T16:05:21.968Z,48.40
2022-10-12T16:07:49.462Z,39.58
2022-10-12T16:10:17.814Z,51.25
2022-10-12T16:12:46.912Z,40.33
2022-10-12T16:15:16.053Z,41.75
2022-10-12T16:17:43.441Z,39.47
2022-10-12T16:20:11.362Z,39.67
2022-10-12T16:22:42.552Z,43.80
2022-10-12T16:25:10.839Z,47.45
2022-10-12T16:27:38.349Z,39.15
2022-10-12T16:30:09.695Z,42.70
2022-10-12T16:32:37.142Z,41.45
2022-10-12T16:35:05.300Z,36.75
2022-10-12T16:37:33.182Z,42.55
2022-10-12T16:40:01.364Z,48.38
2022-10-12T16:42:29.133Z,40.65
2022-10-12T16:44:56.483Z,45.75
2022-10-12T16:47:25.422Z,46.28
2022-10-12T16:49:53.894Z,42.83
2022-10-12T16:52:25.050Z,51.45
2022-10-12T16:54:53.089Z,43.30
2022-10-12T16:57:20.818Z,41.83
2022-10-12T16:59:48.607Z,44.25
2022-10-12T17:02:17.020Z,39.25
2022-10-12T17:04:45.706Z,41.22
2022-10-12T17:07:13.430Z,41.13
2022-10-12T17:09:40.773Z,39.55
2022-10-12T17:12:08.252Z,45.80
2022-10-12T17:14:35.695Z,42.25
2022-10-12T17:17:03.120Z,38.53
2022-10-12T17:19:32.436Z,50.38
2022-10-12T17:22:01.012Z,44.55
2022-10-12T17:24:29.073Z,40.15
2022-10-12T17:26:56.460Z,44.25
2022-10-12T17:29:24.691Z,42.92
2022-10-12T17:31:52.442Z,37.60
2022-10-12T17:34:29.442Z,47.95
2022-10-12T17:36:57.859Z,39.15
2022-10-12T17:39:25.839Z,38.80
2022-10-12T17:41:53.215Z,42.28
2022-10-12T17:44:20.572Z,39.17
2022-10-12T17:46:48.056Z,36.92
2022-10-12T17:49:24.527Z,41.85
2022-10-12T17:51:52.688Z,33.90
2022-10-12T17:54:20.514Z,46.30
2022-10-12T17:56:47.896Z,38.33
2022-10-12T17:59:16.789Z,39.60
2022-10-12T18:01:44.233Z,35.65
2022-10-12T18:04:12.083Z,42.60
2022-10-12T18:06:39.548Z,36.28
2022-10-12T18:09:07.219Z,34.42
2022-10-12T18:11:34.896Z,34.65
2022-10-12T18:14:02.276Z,34.47
2022-10-12T18:16:31.292Z,34.08
2022-10-12T18:18:59.258Z,42.88
2022-10-12T18:21:27.434Z,41.22
2022-10-12T18:23:56.955Z,39.78
2022-10-12T18:26:24.989Z,38.75
2022-10-12T18:28:53.353Z,39.63
2022-10-12T18:31:25.338Z,31.95
2022-10-12T18:33:53.181Z,40.08
2022-10-12T18:36:21.301Z,36.08
2022-10-12T18:38:48.736Z,37.20
2022-10-12T18:41:17.864Z,36.72
2022-10-12T18:43:45.235Z,53.78
2022-10-12T18:46:13.736Z,39.90
2022-10-12T18:48:41.294Z,39.90
2022-10-12T18:51:21.816Z,42.75
2022-10-12T18:53:49.280Z,41.05
2022-10-12T18:56:16.887Z,44.20
2022-10-12T18:58:44.232Z,41.20
2022-10-12T19:01:13.347Z,40.45
2022-10-12T19:03:40.911Z,40.83
2022-10-12T19:06:10.865Z,40.10
2022-10-12T19:08:38.530Z,43.15
2022-10-12T19:11:08.052Z,43.83
2022-10-12T19:13:36.716Z,41.42
2022-10-12T19:16:15.214Z,33.38
2022-10-12T19:18:42.602Z,40.08
2022-10-12T19:21:14.587Z,39.55
2022-10-12T19:23:42.119Z,37.55
2022-10-12T19:26:17.141Z,43.88
2022-10-12T19:28:44.774Z,48.97
2022-10-12T19:31:20.594Z,40.80
2022-10-12T19:33:48.021Z,41.55
2022-10-12T19:36:16.416Z,36.63
2022-10-12T19:38:45.849Z,37.67
2022-10-12T19:41:13.352Z,38.53
2022-10-12T19:43:43.019Z,38.45
2022-10-12T19:46:11.102Z,37.53
2022-10-12T19:48:38.691Z,41.67
2022-10-12T19:51:08.023Z,41.55
2022-10-12T19:53:35.418Z,41.90
2022-10-12T19:56:04.529Z,41.03
2022-10-12T19:58:31.898Z,42.35
2022-10-12T20:01:09.463Z,45.40
2022-10-12T20:03:38.561Z,40.70
2022-10-12T20:06:09.122Z,42.00
2022-10-12T20:08:37.127Z,43.72
2022-10-12T20:11:04.524Z,49.03
2022-10-12T20:13:31.890Z,43.97
2022-10-12T20:15:59.314Z,41.10
2022-10-12T20:18:26.914Z,44.67
2022-10-12T20:20:54.463Z,44.88
2022-10-12T20:23:22.012Z,40.67
2022-10-12T20:25:53.937Z,42.95
2022-10-12T20:28:21.885Z,44.70
2022-10-12T20:30:49.290Z,44.25
2022-10-12T20:33:16.665Z,38.50
2022-10-12T20:35:48.367Z,45.63
2022-10-12T20:38:16.877Z,40.45
2022-10-12T20:40:45.878Z,43.72
2022-10-12T20:43:14.288Z,44.45
2022-10-12T20:45:41.937Z,46.42
2022-10-12T20:48:09.406Z,42.00
2022-10-12T20:50:37.402Z,46.05
2022-10-12T20:53:04.729Z,42.05
2022-10-12T20:55:32.056Z,46.45
2022-10-12T20:57:59.467Z,42.38
2022-10-12T21:00:27.008Z,48.50
2022-10-12T21:02:54.405Z,46.75
2022-10-12T21:05:21.695Z,46.75
2022-10-12T21:07:49.044Z,50.63
2022-10-12T21:10:16.403Z,49.13
2022-10-12T21:12:43.775Z,50.08
2022-10-12T21:15:11.284Z,46.63
2022-10-12T21:17:38.601Z,46.72
2022-10-12T21:20:06.370Z,47.55
2022-10-12T21:22:33.699Z,49.97
2022-10-12T21:25:01.002Z,48.72
2022-10-12T21:27:28.340Z,50.50
2022-10-12T21:29:55.608Z,52.35
2022-10-12T21:32:22.967Z,46.45
2022-10-12T21:34:50.562Z,47.13
2022-10-12T21:37:17.966Z,44.25
2022-10-12T21:39:45.467Z,51.67
2022-10-12T21:42:12.771Z,44.17
2022-10-12T21:44:40.194Z,40.45
2022-10-12T21:47:07.550Z,49.72
2022-10-12T21:49:34.872Z,44.88
2022-10-12T21:52:02.162Z,40.80
2022-10-12T21:54:29.547Z,48.35
2022-10-12T21:56:56.818Z,46.55
2022-10-12T21:59:26.356Z,44.42
2022-10-12T22:01:53.822Z,50.28
2022-10-12T22:04:21.232Z,52.10
2022-10-12T22:06:48.620Z,45.53
2022-10-12T22:09:16.901Z,41.10
2022-10-12T22:11:44.362Z,45.47
2022-10-12T22:14:13.602Z,40.28
2022-10-12T22:16:40.914Z,43.55
2022-10-12T22:19:08.534Z,44.95
2022-10-12T22:21:36.368Z,46.53
2022-10-12T22:24:03.824Z,46.55
2022-10-12T22:26:32.505Z,44.92
2022-10-12T22:29:01.992Z,46.97
2022-10-12T22:31:29.348Z,50.85
2022-10-12T22:33:56.691Z,46.55
2022-10-12T22:36:24.013Z,50.03
2022-10-12T22:38:51.314Z,50.05
2022-10-12T22:41:19.933Z,51.40
2022-10-12T22:43:52.022Z,51.63
2022-10-12T22:46:19.698Z,51.92
2022-10-12T22:48:47.074Z,47.58
2022-10-12T22:51:32.575Z,43.72
2022-10-12T22:53:59.986Z,48.10
2022-10-12T22:56:27.542Z,45.72
2022-10-12T22:58:55.867Z,39.97
2022-10-12T23:01:23.433Z,50.72
2022-10-12T23:03:50.785Z,42.85
2022-10-12T23:06:18.489Z,43.53
2022-10-12T23:08:46.213Z,49.28
2022-10-12T23:11:18.790Z,44.92
2022-10-12T23:13:46.241Z,45.85
2022-10-12T23:16:15.939Z,52.00
2022-10-12T23:18:43.253Z,53.67
2022-10-12T23:21:12.496Z,48.22
2022-10-12T23:23:40.034Z,55.53
2022-10-12T23:26:17.885Z,48.33
2022-10-12T23:28:45.661Z,51.17
2022-10-12T23:31:17.844Z,47.33
2022-10-12T23:33:45.328Z,53.97
2022-10-12T23:36:14.400Z,49.15
2022-10-12T23:38:42.246Z,58.15
2022-10-12T23:41:09.866Z,54.83
2022-10-12T23:43:37.216Z,49.58
2022-10-12T23:46:05.233Z,50.75
2022-10-12T23:48:32.828Z,49.53
2022-10-12T23:51:00.388Z,47.63
2022-10-12T23:53:27.738Z,52.38
2022-10-12T23:55:55.172Z,56.30
2022-10-12T23:58:22.493Z,49.35
